sensor_id;sensor_type;location;lat;lon;timestamp;P1;durP1;ratioP1;P2;durP2;ratioP2
14209;SDS011;7188;56.070;12.698;2022-10-10T00:02:24;8.70;;;1.83;;
14209;SDS011;7188;56.070;12.698;2022-10-10T00:04:50;9.00;;;1.70;;
14209;SDS011;7188;56.070;12.698;2022-10-10T00:07:17;5.63;;;2.17;;
14209;SDS011;7188;56.070;12.698;2022-10-10T00:09:44;5.30;;;1.60;;
14209;SDS011;7188;56.070;12.698;2022-10-10T00:12:10;7.67;;;2.10;;
14209;SDS011;7188;56.070;12.698;2022-10-10T00:14:36;18.60;;;2.20;;
14209;SDS011;7188;56.070;12.698;2022-10-10T00:17:01;8.43;;;1.90;;
14209;SDS011;7188;56.070;12.698;2022-10-10T00:19:27;6.67;;;2.03;;
14209;SDS011;7188;56.070;12.698;2022-10-10T00:21:52;10.17;;;2.23;;
14209;SDS011;7188;56.070;12.698;2022-10-10T00:24:18;8.70;;;1.43;;
14209;SDS011;7188;56.070;12.698;2022-10-10T00:26:44;10.50;;;1.50;;
14209;SDS011;7188;56.070;12.698;2022-10-10T00:29:09;5.50;;;1.27;;
14209;SDS011;7188;56.070;12.698;2022-10-10T00:31:35;6.87;;;1.00;;
14209;SDS011;7188;56.070;12.698;2022-10-10T00:34:00;10.40;;;1.07;;
14209;SDS011;7188;56.070;12.698;2022-10-10T00:36:26;7.60;;;1.40;;
14209;SDS011;7188;56.070;12.698;2022-10-10T00:38:52;10.80;;;2.10;;
14209;SDS011;7188;56.070;12.698;2022-10-10T00:41:17;10.10;;;1.67;;
14209;SDS011;7188;56.070;12.698;2022-10-10T00:43:59;3.90;;;1.30;;
14209;SDS011;7188;56.070;12.698;2022-10-10T00:46:51;5.17;;;1.10;;
14209;SDS011;7188;56.070;12.698;2022-10-10T00:49:17;9.47;;;1.20;;
14209;SDS011;7188;56.070;12.698;2022-10-10T00:51:47;5.57;;;1.53;;
14209;SDS011;7188;56.070;12.698;2022-10-10T00:54:17;8.77;;;1.20;;
14209;SDS011;7188;56.070;12.698;2022-10-10T00:56:49;17.87;;;2.27;;
14209;SDS011;7188;56.070;12.698;2022-10-10T00:59:22;9.27;;;1.53;;
14209;SDS011;7188;56.070;12.698;2022-10-10T01:01:50;9.33;;;1.17;;
14209;SDS011;7188;56.070;12.698;2022-10-10T01:07:01;6.17;;;1.27;;
14209;SDS011;7188;56.070;12.698;2022-10-10T01:09:32;7.47;;;1.17;;
14209;SDS011;7188;56.070;12.698;2022-10-10T01:12:03;7.20;;;0.90;;
14209;SDS011;7188;56.070;12.698;2022-10-10T01:25:23;9.03;;;1.23;;
14209;SDS011;7188;56.070;12.698;2022-10-10T01:31:00;5.70;;;1.47;;
14209;SDS011;7188;56.070;12.698;2022-10-10T01:36:26;6.37;;;1.30;;
14209;SDS011;7188;56.070;12.698;2022-10-10T01:41:33;5.93;;;1.10;;
14209;SDS011;7188;56.070;12.698;2022-10-10T01:44:04;10.50;;;1.30;;
14209;SDS011;7188;56.070;12.698;2022-10-10T01:46:30;5.40;;;1.40;;
14209;SDS011;7188;56.070;12.698;2022-10-10T01:48:57;7.13;;;1.17;;
14209;SDS011;7188;56.070;12.698;2022-10-10T01:54:39;7.03;;;1.10;;
14209;SDS011;7188;56.070;12.698;2022-10-10T01:57:34;4.20;;;1.00;;
14209;SDS011;7188;56.070;12.698;2022-10-10T02:00:18;7.07;;;1.40;;
14209;SDS011;7188;56.070;12.698;2022-10-10T02:02:49;7.90;;;1.57;;
14209;SDS011;7188;56.070;12.698;2022-10-10T02:05:32;7.17;;;1.50;;
14209;SDS011;7188;56.070;12.698;2022-10-10T02:08:20;7.33;;;1.80;;
14209;SDS011;7188;56.070;12.698;2022-10-10T02:11:20;7.80;;;1.10;;
14209;SDS011;7188;56.070;12.698;2022-10-10T02:13:48;9.40;;;1.10;;
14209;SDS011;7188;56.070;12.698;2022-10-10T02:16:21;8.70;;;1.03;;
14209;SDS011;7188;56.070;12.698;2022-10-10T02:18:50;9.57;;;1.23;;
14209;SDS011;7188;56.070;12.698;2022-10-10T02:21:18;11.67;;;1.53;;
14209;SDS011;7188;56.070;12.698;2022-10-10T02:23:45;6.13;;;1.60;;
14209;SDS011;7188;56.070;12.698;2022-10-10T02:26:17;8.97;;;1.30;;
14209;SDS011;7188;56.070;12.698;2022-10-10T02:28:47;2.97;;;0.90;;
14209;SDS011;7188;56.070;12.698;2022-10-10T02:31:15;5.97;;;1.30;;
14209;SDS011;7188;56.070;12.698;2022-10-10T02:33:49;11.43;;;1.50;;
14209;SDS011;7188;56.070;12.698;2022-10-10T02:36:20;7.17;;;1.47;;
14209;SDS011;7188;56.070;12.698;2022-10-10T02:38:48;7.23;;;2.23;;
14209;SDS011;7188;56.070;12.698;2022-10-10T02:41:16;8.80;;;1.40;;
14209;SDS011;7188;56.070;12.698;2022-10-10T02:43:43;4.17;;;1.07;;
14209;SDS011;7188;56.070;12.698;2022-10-10T02:46:11;7.77;;;1.13;;
14209;SDS011;7188;56.070;12.698;2022-10-10T02:48:37;5.23;;;1.23;;
14209;SDS011;7188;56.070;12.698;2022-10-10T02:51:03;5.60;;;1.37;;
14209;SDS011;7188;56.070;12.698;2022-10-10T02:53:29;10.60;;;1.63;;
14209;SDS011;7188;56.070;12.698;2022-10-10T02:55:55;7.13;;;1.93;;
14209;SDS011;7188;56.070;12.698;2022-10-10T02:58:20;5.27;;;1.23;;
14209;SDS011;7188;56.070;12.698;2022-10-10T03:00:46;7.67;;;1.20;;
14209;SDS011;7188;56.070;12.698;2022-10-10T03:03:11;6.07;;;1.63;;
14209;SDS011;7188;56.070;12.698;2022-10-10T03:05:37;13.27;;;1.30;;
14209;SDS011;7188;56.070;12.698;2022-10-10T03:08:03;9.87;;;1.00;;
14209;SDS011;7188;56.070;12.698;2022-10-10T03:10:28;9.23;;;1.50;;
14209;SDS011;7188;56.070;12.698;2022-10-10T03:12:54;9.00;;;1.40;;
14209;SDS011;7188;56.070;12.698;2022-10-10T03:15:19;8.40;;;1.40;;
14209;SDS011;7188;56.070;12.698;2022-10-10T03:17:45;9.70;;;1.60;;
14209;SDS011;7188;56.070;12.698;2022-10-10T03:20:11;9.47;;;1.30;;
14209;SDS011;7188;56.070;12.698;2022-10-10T03:22:37;7.83;;;1.43;;
14209;SDS011;7188;56.070;12.698;2022-10-10T03:25:03;7.93;;;1.43;;
14209;SDS011;7188;56.070;12.698;2022-10-10T03:27:29;10.23;;;1.27;;
14209;SDS011;7188;56.070;12.698;2022-10-10T03:29:55;6.90;;;1.43;;
14209;SDS011;7188;56.070;12.698;2022-10-10T03:32:20;4.70;;;0.90;;
14209;SDS011;7188;56.070;12.698;2022-10-10T03:34:46;7.50;;;1.27;;
14209;SDS011;7188;56.070;12.698;2022-10-10T03:37:11;8.23;;;1.03;;
14209;SDS011;7188;56.070;12.698;2022-10-10T03:39:37;7.87;;;1.60;;
14209;SDS011;7188;56.070;12.698;2022-10-10T03:42:03;6.00;;;1.00;;
14209;SDS011;7188;56.070;12.698;2022-10-10T03:44:29;12.40;;;1.50;;
14209;SDS011;7188;56.070;12.698;2022-10-10T03:46:54;8.03;;;1.47;;
14209;SDS011;7188;56.070;12.698;2022-10-10T03:49:20;11.27;;;1.37;;
14209;SDS011;7188;56.070;12.698;2022-10-10T03:51:46;5.73;;;1.40;;
14209;SDS011;7188;56.070;12.698;2022-10-10T03:54:11;5.30;;;1.43;;
14209;SDS011;7188;56.070;12.698;2022-10-10T03:56:37;9.23;;;1.20;;
14209;SDS011;7188;56.070;12.698;2022-10-10T03:59:03;4.47;;;1.10;;
14209;SDS011;7188;56.070;12.698;2022-10-10T04:01:30;9.93;;;1.53;;
14209;SDS011;7188;56.070;12.698;2022-10-10T04:03:56;7.80;;;1.73;;
14209;SDS011;7188;56.070;12.698;2022-10-10T04:06:22;7.97;;;1.37;;
14209;SDS011;7188;56.070;12.698;2022-10-10T04:08:48;3.37;;;1.47;;
14209;SDS011;7188;56.070;12.698;2022-10-10T04:11:14;6.03;;;1.80;;
14209;SDS011;7188;56.070;12.698;2022-10-10T04:13:39;5.80;;;1.03;;
14209;SDS011;7188;56.070;12.698;2022-10-10T04:16:05;8.37;;;1.67;;
14209;SDS011;7188;56.070;12.698;2022-10-10T04:18:31;10.10;;;1.27;;
14209;SDS011;7188;56.070;12.698;2022-10-10T04:20:56;7.20;;;1.33;;
14209;SDS011;7188;56.070;12.698;2022-10-10T04:23:25;5.80;;;1.03;;
14209;SDS011;7188;56.070;12.698;2022-10-10T04:25:51;7.37;;;1.53;;
14209;SDS011;7188;56.070;12.698;2022-10-10T04:28:17;3.63;;;1.23;;
14209;SDS011;7188;56.070;12.698;2022-10-10T04:30:43;7.00;;;1.67;;
14209;SDS011;7188;56.070;12.698;2022-10-10T04:33:09;3.63;;;1.40;;
14209;SDS011;7188;56.070;12.698;2022-10-10T04:35:34;9.27;;;2.13;;
14209;SDS011;7188;56.070;12.698;2022-10-10T04:38:00;6.17;;;1.20;;
14209;SDS011;7188;56.070;12.698;2022-10-10T04:40:26;5.67;;;1.47;;
14209;SDS011;7188;56.070;12.698;2022-10-10T04:42:51;5.63;;;1.53;;
14209;SDS011;7188;56.070;12.698;2022-10-10T04:45:18;3.50;;;1.10;;
14209;SDS011;7188;56.070;12.698;2022-10-10T04:47:43;6.57;;;1.47;;
14209;SDS011;7188;56.070;12.698;2022-10-10T04:50:09;4.90;;;1.10;;
14209;SDS011;7188;56.070;12.698;2022-10-10T04:52:35;6.03;;;1.10;;
14209;SDS011;7188;56.070;12.698;2022-10-10T04:55:00;8.20;;;1.13;;
14209;SDS011;7188;56.070;12.698;2022-10-10T04:57:26;5.17;;;1.20;;
14209;SDS011;7188;56.070;12.698;2022-10-10T04:59:52;7.23;;;1.20;;
14209;SDS011;7188;56.070;12.698;2022-10-10T05:02:17;2.80;;;1.20;;
14209;SDS011;7188;56.070;12.698;2022-10-10T05:04:43;2.83;;;0.97;;
14209;SDS011;7188;56.070;12.698;2022-10-10T05:07:08;6.63;;;1.27;;
14209;SDS011;7188;56.070;12.698;2022-10-10T05:09:34;3.33;;;1.13;;
14209;SDS011;7188;56.070;12.698;2022-10-10T05:12:00;7.47;;;1.63;;
14209;SDS011;7188;56.070;12.698;2022-10-10T05:14:25;9.23;;;1.50;;
14209;SDS011;7188;56.070;12.698;2022-10-10T05:16:51;2.80;;;1.00;;
14209;SDS011;7188;56.070;12.698;2022-10-10T05:19:17;7.73;;;1.47;;
14209;SDS011;7188;56.070;12.698;2022-10-10T05:21:42;5.60;;;1.27;;
14209;SDS011;7188;56.070;12.698;2022-10-10T05:24:08;3.13;;;1.37;;
14209;SDS011;7188;56.070;12.698;2022-10-10T05:26:33;6.20;;;1.13;;
14209;SDS011;7188;56.070;12.698;2022-10-10T05:28:59;5.20;;;1.33;;
14209;SDS011;7188;56.070;12.698;2022-10-10T05:31:25;7.73;;;1.40;;
14209;SDS011;7188;56.070;12.698;2022-10-10T05:33:52;5.60;;;1.13;;
14209;SDS011;7188;56.070;12.698;2022-10-10T05:36:18;6.43;;;1.40;;
14209;SDS011;7188;56.070;12.698;2022-10-10T05:38:43;5.03;;;1.00;;
14209;SDS011;7188;56.070;12.698;2022-10-10T05:41:09;14.87;;;1.80;;
14209;SDS011;7188;56.070;12.698;2022-10-10T05:43:36;4.50;;;1.13;;
14209;SDS011;7188;56.070;12.698;2022-10-10T05:46:03;8.47;;;1.30;;
14209;SDS011;7188;56.070;12.698;2022-10-10T05:48:29;4.93;;;1.00;;
14209;SDS011;7188;56.070;12.698;2022-10-10T05:50:55;3.73;;;1.10;;
14209;SDS011;7188;56.070;12.698;2022-10-10T05:53:22;7.83;;;1.60;;
14209;SDS011;7188;56.070;12.698;2022-10-10T05:55:49;3.53;;;1.53;;
14209;SDS011;7188;56.070;12.698;2022-10-10T05:58:15;6.30;;;1.10;;
14209;SDS011;7188;56.070;12.698;2022-10-10T06:00:41;5.90;;;1.20;;
14209;SDS011;7188;56.070;12.698;2022-10-10T06:03:08;5.93;;;1.23;;
14209;SDS011;7188;56.070;12.698;2022-10-10T06:05:42;6.00;;;1.50;;
14209;SDS011;7188;56.070;12.698;2022-10-10T06:08:09;4.50;;;0.97;;
14209;SDS011;7188;56.070;12.698;2022-10-10T06:10:44;4.33;;;1.00;;
14209;SDS011;7188;56.070;12.698;2022-10-10T06:13:10;5.37;;;1.60;;
14209;SDS011;7188;56.070;12.698;2022-10-10T06:15:38;4.27;;;0.80;;
14209;SDS011;7188;56.070;12.698;2022-10-10T06:18:04;3.97;;;0.90;;
14209;SDS011;7188;56.070;12.698;2022-10-10T06:20:32;4.33;;;1.40;;
14209;SDS011;7188;56.070;12.698;2022-10-10T06:22:59;5.07;;;1.17;;
14209;SDS011;7188;56.070;12.698;2022-10-10T06:25:25;6.30;;;1.37;;
14209;SDS011;7188;56.070;12.698;2022-10-10T06:27:50;4.63;;;1.40;;
14209;SDS011;7188;56.070;12.698;2022-10-10T06:30:16;3.53;;;1.77;;
14209;SDS011;7188;56.070;12.698;2022-10-10T06:32:41;6.07;;;1.53;;
14209;SDS011;7188;56.070;12.698;2022-10-10T06:35:07;4.97;;;1.70;;
14209;SDS011;7188;56.070;12.698;2022-10-10T06:37:33;5.63;;;1.77;;
14209;SDS011;7188;56.070;12.698;2022-10-10T06:39:59;6.73;;;1.30;;
14209;SDS011;7188;56.070;12.698;2022-10-10T06:42:24;5.73;;;1.40;;
14209;SDS011;7188;56.070;12.698;2022-10-10T06:44:50;6.63;;;1.67;;
14209;SDS011;7188;56.070;12.698;2022-10-10T06:47:16;9.57;;;1.90;;
14209;SDS011;7188;56.070;12.698;2022-10-10T06:49:42;4.97;;;1.53;;
14209;SDS011;7188;56.070;12.698;2022-10-10T06:52:08;8.07;;;1.50;;
14209;SDS011;7188;56.070;12.698;2022-10-10T06:54:33;8.50;;;1.10;;
14209;SDS011;7188;56.070;12.698;2022-10-10T06:57:00;7.60;;;1.23;;
14209;SDS011;7188;56.070;12.698;2022-10-10T06:59:36;4.43;;;1.37;;
14209;SDS011;7188;56.070;12.698;2022-10-10T07:02:01;8.53;;;1.40;;
14209;SDS011;7188;56.070;12.698;2022-10-10T07:04:27;8.73;;;2.00;;
14209;SDS011;7188;56.070;12.698;2022-10-10T07:06:53;4.00;;;1.23;;
14209;SDS011;7188;56.070;12.698;2022-10-10T07:09:19;5.77;;;1.57;;
14209;SDS011;7188;56.070;12.698;2022-10-10T07:11:45;2.53;;;1.50;;
14209;SDS011;7188;56.070;12.698;2022-10-10T07:14:11;3.80;;;1.20;;
14209;SDS011;7188;56.070;12.698;2022-10-10T07:16:37;5.50;;;1.33;;
14209;SDS011;7188;56.070;12.698;2022-10-10T07:19:03;7.00;;;1.60;;
14209;SDS011;7188;56.070;12.698;2022-10-10T07:21:29;5.57;;;1.67;;
14209;SDS011;7188;56.070;12.698;2022-10-10T07:23:55;7.33;;;1.37;;
14209;SDS011;7188;56.070;12.698;2022-10-10T07:26:20;6.97;;;1.20;;
14209;SDS011;7188;56.070;12.698;2022-10-10T07:28:49;5.43;;;1.20;;
14209;SDS011;7188;56.070;12.698;2022-10-10T07:31:14;5.37;;;1.60;;
14209;SDS011;7188;56.070;12.698;2022-10-10T07:33:42;5.10;;;1.60;;
14209;SDS011;7188;56.070;12.698;2022-10-10T07:36:12;13.23;;;1.80;;
14209;SDS011;7188;56.070;12.698;2022-10-10T07:38:38;10.80;;;1.90;;
14209;SDS011;7188;56.070;12.698;2022-10-10T07:41:05;7.63;;;2.07;;
14209;SDS011;7188;56.070;12.698;2022-10-10T07:43:33;5.07;;;2.00;;
14209;SDS011;7188;56.070;12.698;2022-10-10T07:45:59;6.50;;;1.97;;
14209;SDS011;7188;56.070;12.698;2022-10-10T07:48:25;6.97;;;1.70;;
14209;SDS011;7188;56.070;12.698;2022-10-10T07:50:50;6.87;;;1.80;;
14209;SDS011;7188;56.070;12.698;2022-10-10T07:53:16;7.83;;;1.77;;
14209;SDS011;7188;56.070;12.698;2022-10-10T07:55:42;6.60;;;1.80;;
14209;SDS011;7188;56.070;12.698;2022-10-10T07:58:09;6.37;;;1.93;;
14209;SDS011;7188;56.070;12.698;2022-10-10T08:00:35;8.10;;;1.80;;
14209;SDS011;7188;56.070;12.698;2022-10-10T08:03:02;7.33;;;1.97;;
14209;SDS011;7188;56.070;12.698;2022-10-10T08:05:28;7.77;;;2.43;;
14209;SDS011;7188;56.070;12.698;2022-10-10T08:07:53;5.57;;;1.53;;
14209;SDS011;7188;56.070;12.698;2022-10-10T08:10:19;5.63;;;1.67;;
14209;SDS011;7188;56.070;12.698;2022-10-10T08:12:45;5.37;;;1.40;;
14209;SDS011;7188;56.070;12.698;2022-10-10T08:15:10;9.07;;;1.57;;
14209;SDS011;7188;56.070;12.698;2022-10-10T08:17:36;7.30;;;1.83;;
14209;SDS011;7188;56.070;12.698;2022-10-10T08:20:02;8.97;;;1.77;;
14209;SDS011;7188;56.070;12.698;2022-10-10T08:22:28;5.70;;;1.30;;
14209;SDS011;7188;56.070;12.698;2022-10-10T08:24:54;8.93;;;1.80;;
14209;SDS011;7188;56.070;12.698;2022-10-10T08:27:20;6.33;;;2.17;;
14209;SDS011;7188;56.070;12.698;2022-10-10T08:29:46;3.83;;;1.30;;
14209;SDS011;7188;56.070;12.698;2022-10-10T08:32:11;5.63;;;1.43;;
14209;SDS011;7188;56.070;12.698;2022-10-10T08:34:37;5.50;;;1.97;;
14209;SDS011;7188;56.070;12.698;2022-10-10T08:37:02;6.90;;;1.40;;
14209;SDS011;7188;56.070;12.698;2022-10-10T08:39:28;8.90;;;1.90;;
14209;SDS011;7188;56.070;12.698;2022-10-10T08:41:54;4.90;;;1.77;;
14209;SDS011;7188;56.070;12.698;2022-10-10T08:47:00;4.73;;;1.60;;
14209;SDS011;7188;56.070;12.698;2022-10-10T08:49:37;5.67;;;2.10;;
14209;SDS011;7188;56.070;12.698;2022-10-10T08:55:13;5.23;;;1.93;;
14209;SDS011;7188;56.070;12.698;2022-10-10T08:57:44;6.67;;;1.37;;
14209;SDS011;7188;56.070;12.698;2022-10-10T09:00:21;6.90;;;1.83;;
14209;SDS011;7188;56.070;12.698;2022-10-10T09:02:50;5.53;;;1.67;;
14209;SDS011;7188;56.070;12.698;2022-10-10T09:07:57;9.03;;;1.97;;
14209;SDS011;7188;56.070;12.698;2022-10-10T09:13:24;4.93;;;1.90;;
14209;SDS011;7188;56.070;12.698;2022-10-10T09:16:07;3.53;;;1.40;;
14209;SDS011;7188;56.070;12.698;2022-10-10T09:21:21;4.67;;;1.90;;
14209;SDS011;7188;56.070;12.698;2022-10-10T09:23:52;7.03;;;1.70;;
14209;SDS011;7188;56.070;12.698;2022-10-10T09:26:27;4.70;;;1.57;;
14209;SDS011;7188;56.070;12.698;2022-10-10T09:36:30;3.07;;;1.33;;
14209;SDS011;7188;56.070;12.698;2022-10-10T09:39:01;6.67;;;1.40;;
14209;SDS011;7188;56.070;12.698;2022-10-10T09:44:34;4.83;;;1.77;;
14209;SDS011;7188;56.070;12.698;2022-10-10T09:47:02;6.70;;;2.03;;
14209;SDS011;7188;56.070;12.698;2022-10-10T09:49:27;5.37;;;1.60;;
14209;SDS011;7188;56.070;12.698;2022-10-10T09:51:53;4.57;;;1.30;;
14209;SDS011;7188;56.070;12.698;2022-10-10T09:54:19;2.97;;;1.07;;
14209;SDS011;7188;56.070;12.698;2022-10-10T09:56:48;5.13;;;1.50;;
14209;SDS011;7188;56.070;12.698;2022-10-10T10:02:14;5.53;;;1.47;;
14209;SDS011;7188;56.070;12.698;2022-10-10T10:04:42;4.07;;;1.30;;
14209;SDS011;7188;56.070;12.698;2022-10-10T10:09:53;5.00;;;1.30;;
14209;SDS011;7188;56.070;12.698;2022-10-10T10:12:29;3.87;;;1.27;;
14209;SDS011;7188;56.070;12.698;2022-10-10T10:15:16;6.30;;;1.47;;
14209;SDS011;7188;56.070;12.698;2022-10-10T10:18:10;3.30;;;1.23;;
14209;SDS011;7188;56.070;12.698;2022-10-10T10:21:08;9.23;;;1.50;;
14209;SDS011;7188;56.070;12.698;2022-10-10T10:23:32;2.73;;;1.40;;
14209;SDS011;7188;56.070;12.698;2022-10-10T10:26:03;5.43;;;1.40;;
14209;SDS011;7188;56.070;12.698;2022-10-10T10:28:31;4.97;;;1.77;;
14209;SDS011;7188;56.070;12.698;2022-10-10T10:31:04;6.17;;;1.63;;
14209;SDS011;7188;56.070;12.698;2022-10-10T11:00:14;3.23;;;1.30;;
14209;SDS011;7188;56.070;12.698;2022-10-10T11:02:56;4.17;;;1.20;;
14209;SDS011;7188;56.070;12.698;2022-10-10T11:05:44;7.90;;;2.20;;
14209;SDS011;7188;56.070;12.698;2022-10-10T11:14:10;2.70;;;1.47;;
14209;SDS011;7188;56.070;12.698;2022-10-10T11:24:51;8.03;;;1.67;;
14209;SDS011;7188;56.070;12.698;2022-10-10T11:27:22;3.50;;;1.40;;
14209;SDS011;7188;56.070;12.698;2022-10-10T11:30:06;4.33;;;1.47;;
14209;SDS011;7188;56.070;12.698;2022-10-10T11:35:31;5.57;;;1.53;;
14209;SDS011;7188;56.070;12.698;2022-10-10T11:40:53;5.27;;;1.33;;
14209;SDS011;7188;56.070;12.698;2022-10-10T11:43:42;5.67;;;1.50;;
14209;SDS011;7188;56.070;12.698;2022-10-10T11:46:35;7.67;;;1.80;;
14209;SDS011;7188;56.070;12.698;2022-10-10T11:57:27;3.20;;;1.03;;
14209;SDS011;7188;56.070;12.698;2022-10-10T12:00:05;4.20;;;1.40;;
14209;SDS011;7188;56.070;12.698;2022-10-10T12:02:36;4.43;;;1.73;;
14209;SDS011;7188;56.070;12.698;2022-10-10T12:05:04;2.90;;;1.50;;
14209;SDS011;7188;56.070;12.698;2022-10-10T12:10:39;5.97;;;1.87;;
14209;SDS011;7188;56.070;12.698;2022-10-10T12:12:48;5.00;;;1.40;;
14209;SDS011;7188;56.070;12.698;2022-10-10T12:15:27;4.83;;;1.53;;
14209;SDS011;7188;56.070;12.698;2022-10-10T12:17:56;5.70;;;1.83;;
14209;SDS011;7188;56.070;12.698;2022-10-10T12:23:07;6.17;;;1.70;;
14209;SDS011;7188;56.070;12.698;2022-10-10T12:25:35;5.03;;;1.63;;
14209;SDS011;7188;56.070;12.698;2022-10-10T12:35:50;8.27;;;1.73;;
14209;SDS011;7188;56.070;12.698;2022-10-10T12:38:22;5.27;;;2.00;;
14209;SDS011;7188;56.070;12.698;2022-10-10T12:41:05;7.10;;;1.43;;
14209;SDS011;7188;56.070;12.698;2022-10-10T12:51:23;6.00;;;1.30;;
14209;SDS011;7188;56.070;12.698;2022-10-10T12:53:51;5.53;;;2.07;;
14209;SDS011;7188;56.070;12.698;2022-10-10T12:56:39;4.70;;;1.30;;
14209;SDS011;7188;56.070;12.698;2022-10-10T12:59:17;4.50;;;1.70;;
14209;SDS011;7188;56.070;12.698;2022-10-10T13:01:49;4.93;;;1.73;;
14209;SDS011;7188;56.070;12.698;2022-10-10T13:04:22;4.67;;;1.50;;
14209;SDS011;7188;56.070;12.698;2022-10-10T13:06:51;5.57;;;1.60;;
14209;SDS011;7188;56.070;12.698;2022-10-10T13:09:20;7.53;;;1.30;;
14209;SDS011;7188;56.070;12.698;2022-10-10T13:11:56;5.03;;;1.40;;
14209;SDS011;7188;56.070;12.698;2022-10-10T13:14:36;6.63;;;1.73;;
14209;SDS011;7188;56.070;12.698;2022-10-10T13:17:19;2.10;;;1.37;;
14209;SDS011;7188;56.070;12.698;2022-10-10T13:19:51;9.47;;;1.43;;
14209;SDS011;7188;56.070;12.698;2022-10-10T13:22:17;3.50;;;1.50;;
14209;SDS011;7188;56.070;12.698;2022-10-10T13:24:44;5.57;;;1.70;;
14209;SDS011;7188;56.070;12.698;2022-10-10T13:27:18;5.03;;;1.77;;
14209;SDS011;7188;56.070;12.698;2022-10-10T13:29:56;4.70;;;1.77;;
14209;SDS011;7188;56.070;12.698;2022-10-10T13:32:26;4.87;;;1.73;;
14209;SDS011;7188;56.070;12.698;2022-10-10T13:34:58;4.23;;;1.50;;
14209;SDS011;7188;56.070;12.698;2022-10-10T13:37:28;6.17;;;1.70;;
14209;SDS011;7188;56.070;12.698;2022-10-10T13:39:54;6.97;;;1.87;;
14209;SDS011;7188;56.070;12.698;2022-10-10T13:42:37;6.77;;;1.60;;
14209;SDS011;7188;56.070;12.698;2022-10-10T13:58:31;4.93;;;2.03;;
14209;SDS011;7188;56.070;12.698;2022-10-10T14:01:02;5.37;;;2.10;;
14209;SDS011;7188;56.070;12.698;2022-10-10T14:03:28;6.10;;;1.73;;
14209;SDS011;7188;56.070;12.698;2022-10-10T14:05:57;4.80;;;2.43;;
14209;SDS011;7188;56.070;12.698;2022-10-10T14:08:26;4.40;;;2.10;;
14209;SDS011;7188;56.070;12.698;2022-10-10T14:11:02;5.07;;;1.90;;
14209;SDS011;7188;56.070;12.698;2022-10-10T14:13:30;3.73;;;1.83;;
14209;SDS011;7188;56.070;12.698;2022-10-10T14:16:08;9.17;;;2.10;;
14209;SDS011;7188;56.070;12.698;2022-10-10T14:18:34;5.00;;;1.73;;
14209;SDS011;7188;56.070;12.698;2022-10-10T14:21:00;7.60;;;2.40;;
14209;SDS011;7188;56.070;12.698;2022-10-10T14:23:26;3.70;;;1.97;;
14209;SDS011;7188;56.070;12.698;2022-10-10T14:25:51;4.93;;;2.30;;
14209;SDS011;7188;56.070;12.698;2022-10-10T14:28:23;6.13;;;2.53;;
14209;SDS011;7188;56.070;12.698;2022-10-10T14:30:50;6.63;;;2.07;;
14209;SDS011;7188;56.070;12.698;2022-10-10T14:33:16;4.23;;;2.60;;
14209;SDS011;7188;56.070;12.698;2022-10-10T14:35:43;5.47;;;2.10;;
14209;SDS011;7188;56.070;12.698;2022-10-10T14:38:11;5.17;;;2.13;;
14209;SDS011;7188;56.070;12.698;2022-10-10T14:40:38;6.63;;;2.30;;
14209;SDS011;7188;56.070;12.698;2022-10-10T14:43:05;4.50;;;2.53;;
14209;SDS011;7188;56.070;12.698;2022-10-10T14:45:31;7.57;;;2.70;;
14209;SDS011;7188;56.070;12.698;2022-10-10T14:47:57;2.80;;;2.27;;
14209;SDS011;7188;56.070;12.698;2022-10-10T14:50:25;6.23;;;2.60;;
14209;SDS011;7188;56.070;12.698;2022-10-10T14:52:54;9.17;;;2.50;;
14209;SDS011;7188;56.070;12.698;2022-10-10T14:55:20;5.90;;;1.90;;
14209;SDS011;7188;56.070;12.698;2022-10-10T14:57:45;5.47;;;2.33;;
14209;SDS011;7188;56.070;12.698;2022-10-10T15:00:15;6.77;;;2.70;;
14209;SDS011;7188;56.070;12.698;2022-10-10T15:02:43;6.17;;;2.33;;
14209;SDS011;7188;56.070;12.698;2022-10-10T15:05:09;6.47;;;2.33;;
14209;SDS011;7188;56.070;12.698;2022-10-10T15:07:35;3.93;;;2.40;;
14209;SDS011;7188;56.070;12.698;2022-10-10T15:10:01;6.93;;;2.93;;
14209;SDS011;7188;56.070;12.698;2022-10-10T15:12:27;5.47;;;2.53;;
14209;SDS011;7188;56.070;12.698;2022-10-10T15:14:53;5.43;;;2.10;;
14209;SDS011;7188;56.070;12.698;2022-10-10T15:17:19;4.40;;;2.73;;
14209;SDS011;7188;56.070;12.698;2022-10-10T15:19:45;10.53;;;2.37;;
14209;SDS011;7188;56.070;12.698;2022-10-10T15:22:10;5.83;;;2.40;;
14209;SDS011;7188;56.070;12.698;2022-10-10T15:24:36;6.47;;;2.30;;
14209;SDS011;7188;56.070;12.698;2022-10-10T15:27:01;6.43;;;2.43;;
14209;SDS011;7188;56.070;12.698;2022-10-10T15:29:27;7.00;;;2.43;;
14209;SDS011;7188;56.070;12.698;2022-10-10T15:31:53;5.50;;;2.50;;
14209;SDS011;7188;56.070;12.698;2022-10-10T15:34:19;7.53;;;2.63;;
14209;SDS011;7188;56.070;12.698;2022-10-10T15:36:46;8.17;;;2.80;;
14209;SDS011;7188;56.070;12.698;2022-10-10T15:39:14;10.10;;;3.10;;
14209;SDS011;7188;56.070;12.698;2022-10-10T15:41:40;8.43;;;2.27;;
14209;SDS011;7188;56.070;12.698;2022-10-10T15:44:06;3.70;;;2.67;;
14209;SDS011;7188;56.070;12.698;2022-10-10T15:46:38;8.53;;;2.40;;
14209;SDS011;7188;56.070;12.698;2022-10-10T15:49:05;7.63;;;2.60;;
14209;SDS011;7188;56.070;12.698;2022-10-10T15:51:31;4.77;;;2.23;;
14209;SDS011;7188;56.070;12.698;2022-10-10T15:53:56;3.80;;;1.90;;
14209;SDS011;7188;56.070;12.698;2022-10-10T15:56:23;4.93;;;2.77;;
14209;SDS011;7188;56.070;12.698;2022-10-10T15:58:53;7.93;;;3.00;;
14209;SDS011;7188;56.070;12.698;2022-10-10T16:01:22;4.83;;;2.63;;
14209;SDS011;7188;56.070;12.698;2022-10-10T16:03:48;6.00;;;2.60;;
14209;SDS011;7188;56.070;12.698;2022-10-10T16:06:15;7.43;;;2.50;;
14209;SDS011;7188;56.070;12.698;2022-10-10T16:08:43;8.03;;;2.50;;
14209;SDS011;7188;56.070;12.698;2022-10-10T16:11:10;4.30;;;2.10;;
14209;SDS011;7188;56.070;12.698;2022-10-10T16:13:37;8.53;;;2.93;;
14209;SDS011;7188;56.070;12.698;2022-10-10T16:16:04;7.67;;;3.27;;
14209;SDS011;7188;56.070;12.698;2022-10-10T16:18:32;8.27;;;2.90;;
14209;SDS011;7188;56.070;12.698;2022-10-10T16:21:02;5.23;;;2.60;;
14209;SDS011;7188;56.070;12.698;2022-10-10T16:23:31;7.13;;;3.03;;
14209;SDS011;7188;56.070;12.698;2022-10-10T16:26:00;4.93;;;2.77;;
14209;SDS011;7188;56.070;12.698;2022-10-10T16:28:31;9.13;;;3.67;;
14209;SDS011;7188;56.070;12.698;2022-10-10T16:31:00;3.77;;;2.40;;
14209;SDS011;7188;56.070;12.698;2022-10-10T16:33:27;5.37;;;2.90;;
14209;SDS011;7188;56.070;12.698;2022-10-10T16:35:54;11.20;;;3.43;;
14209;SDS011;7188;56.070;12.698;2022-10-10T16:38:20;10.00;;;3.27;;
14209;SDS011;7188;56.070;12.698;2022-10-10T16:40:45;6.20;;;2.57;;
14209;SDS011;7188;56.070;12.698;2022-10-10T16:43:11;7.03;;;3.20;;
14209;SDS011;7188;56.070;12.698;2022-10-10T16:45:40;7.63;;;3.17;;
14209;SDS011;7188;56.070;12.698;2022-10-10T16:48:10;11.20;;;3.63;;
14209;SDS011;7188;56.070;12.698;2022-10-10T16:50:39;8.30;;;3.23;;
14209;SDS011;7188;56.070;12.698;2022-10-10T16:53:07;6.07;;;3.13;;
14209;SDS011;7188;56.070;12.698;2022-10-10T16:55:40;8.67;;;2.90;;
14209;SDS011;7188;56.070;12.698;2022-10-10T16:58:06;6.67;;;3.17;;
14209;SDS011;7188;56.070;12.698;2022-10-10T17:00:33;8.13;;;3.10;;
14209;SDS011;7188;56.070;12.698;2022-10-10T17:03:00;8.33;;;3.27;;
14209;SDS011;7188;56.070;12.698;2022-10-10T17:05:26;7.77;;;3.17;;
14209;SDS011;7188;56.070;12.698;2022-10-10T17:07:51;5.00;;;3.10;;
14209;SDS011;7188;56.070;12.698;2022-10-10T17:10:18;7.80;;;3.37;;
14209;SDS011;7188;56.070;12.698;2022-10-10T17:12:44;8.73;;;2.93;;
14209;SDS011;7188;56.070;12.698;2022-10-10T17:15:10;8.00;;;3.10;;
14209;SDS011;7188;56.070;12.698;2022-10-10T17:17:35;10.40;;;3.27;;
14209;SDS011;7188;56.070;12.698;2022-10-10T17:20:02;7.33;;;2.67;;
14209;SDS011;7188;56.070;12.698;2022-10-10T17:22:29;6.30;;;2.80;;